LA2506 SPZO-MMLP
Flight info
| Callsign | LA2506 |
|---|---|
| Flight time | N/A |
| Altitude | 34000 |
| Route | GAXUN DCT TOKAN DCT URA UV1 TAL DCT NAXUR UL308 ISERU/N0458F360 UL308 HUX DCT UPN/N0454F380 UJ3 GDL UJ12 TNY UT15 BEXOL UT4 VIBSA DCT LAP |
| Aircraft | A320/M-SDE3FGHIRWY/LB1 |
Departure
| Time | 2026-04-23 16:21 |
|---|---|
| Airport | Alejandro Velasco Astete International Airport (SPZO) |
Arrival
| Time | N/A |
|---|---|
| Airport | Manuel Márquez de León International Airport (MMLP) |
| Time | Latitude | Longitude | Altitude | Speed | Heading |
|---|---|---|---|---|---|
| 2026-04-23 15:36 | -13.53724 | -71.94322 | 10817 ft | 0 kts | 258° |
| 2026-04-23 16:12 | -13.53722 | -71.94313 | 10817 ft | 3 kts | 258° |
| 2026-04-23 16:12 | -13.53719 | -71.94298 | 10817 ft | 3 kts | 266° |
| 2026-04-23 16:12 | -13.53722 | -71.94280 | 10817 ft | 3 kts | 315° |
| 2026-04-23 16:13 | -13.53738 | -71.94270 | 10817 ft | 3 kts | 351° |
| 2026-04-23 16:13 | -13.53755 | -71.94269 | 10817 ft | 0 kts | 1° |
| 2026-04-23 16:16 | -13.53753 | -71.94269 | 10817 ft | 2 kts | 1° |
| 2026-04-23 16:16 | -13.53724 | -71.94267 | 10817 ft | 7 kts | 3° |
| 2026-04-23 16:16 | -13.53678 | -71.94251 | 10817 ft | 8 kts | 64° |
| 2026-04-23 16:16 | -13.53670 | -71.94187 | 10816 ft | 10 kts | 84° |
| 2026-04-23 16:17 | -13.53638 | -71.94095 | 10811 ft | 14 kts | 63° |
| 2026-04-23 16:17 | -13.53594 | -71.94003 | 10809 ft | 17 kts | 65° |
| 2026-04-23 16:17 | -13.53575 | -71.93869 | 10804 ft | 22 kts | 97° |
| 2026-04-23 16:17 | -13.53592 | -71.93698 | 10798 ft | 27 kts | 95° |
| 2026-04-23 16:18 | -13.53612 | -71.93504 | 10780 ft | 29 kts | 97° |
| 2026-04-23 16:18 | -13.53635 | -71.93271 | 10763 ft | 36 kts | 95° |
| 2026-04-23 16:18 | -13.53659 | -71.93005 | 10750 ft | 39 kts | 97° |
| 2026-04-23 16:18 | -13.53688 | -71.92740 | 10738 ft | 35 kts | 95° |
| 2026-04-23 16:19 | -13.53709 | -71.92513 | 10721 ft | 21 kts | 98° |
| 2026-04-23 16:19 | -13.53724 | -71.92388 | 10712 ft | 14 kts | 95° |
| 2026-04-23 16:19 | -13.53724 | -71.92302 | 10706 ft | 8 kts | 64° |
| 2026-04-23 16:19 | -13.53734 | -71.92289 | 10705 ft | 1 kts | 223° |
| 2026-04-23 16:20 | -13.53733 | -71.92292 | 10705 ft | 0 kts | 256° |
| 2026-04-23 16:20 | -13.53731 | -71.92305 | 10706 ft | 1 kts | 275° |
| 2026-04-23 16:20 | -13.53731 | -71.92306 | 10706 ft | 0 kts | 275° |
| 2026-04-23 16:20 | -13.53729 | -71.92321 | 10707 ft | 13 kts | 275° |
| 2026-04-23 16:21 | -13.53689 | -71.92741 | 10734 ft | 104 kts | 276° |
| 2026-04-23 16:21 | -13.53586 | -71.93745 | 10801 ft | 174 kts | 276° |
| 2026-04-23 16:21 | -13.53445 | -71.95059 | 11502 ft | 188 kts | 277° |
| 2026-04-23 16:21 | -13.53287 | -71.96411 | 12459 ft | 197 kts | 278° |
| 2026-04-23 16:22 | -13.53099 | -71.97854 | 13475 ft | 204 kts | 279° |
| 2026-04-23 16:22 | -13.52748 | -71.99304 | 14042 ft | 222 kts | 292° |
| 2026-04-23 16:22 | -13.52038 | -72.00798 | 14209 ft | 243 kts | 300° |
| 2026-04-23 16:22 | -13.51152 | -72.02367 | 14390 ft | 267 kts | 301° |
| 2026-04-23 16:23 | -13.50151 | -72.04085 | 14752 ft | 293 kts | 301° |
| 2026-04-23 16:23 | -13.49074 | -72.05964 | 15137 ft | 317 kts | 301° |
| 2026-04-23 16:23 | -13.47931 | -72.08001 | 15442 ft | 341 kts | 300° |
| 2026-04-23 16:23 | -13.46735 | -72.10183 | 15856 ft | 358 kts | 300° |
| 2026-04-23 16:24 | -13.45515 | -72.12451 | 16562 ft | 365 kts | 299° |
| 2026-04-23 16:24 | -13.44284 | -72.14757 | 17337 ft | 370 kts | 299° |
| 2026-04-23 16:24 | -13.43039 | -72.17095 | 18137 ft | 375 kts | 299° |
| 2026-04-23 16:24 | -13.41786 | -72.19461 | 18909 ft | 380 kts | 299° |
| 2026-04-23 16:25 | -13.40527 | -72.21865 | 19652 ft | 385 kts | 299° |
| 2026-04-23 16:25 | -13.39247 | -72.24307 | 20397 ft | 390 kts | 299° |
| 2026-04-23 16:25 | -13.37957 | -72.26775 | 21096 ft | 395 kts | 299° |
| 2026-04-23 16:25 | -13.36654 | -72.29277 | 21755 ft | 400 kts | 299° |
| 2026-04-23 16:26 | -13.35335 | -72.31808 | 22415 ft | 405 kts | 299° |
| 2026-04-23 16:26 | -13.34111 | -72.34432 | 23045 ft | 411 kts | 289° |
| 2026-04-23 16:26 | -13.33578 | -72.37327 | 23646 ft | 417 kts | 271° |
| 2026-04-23 16:26 | -13.33928 | -72.40287 | 24237 ft | 422 kts | 253° |
| 2026-04-23 16:27 | -13.35167 | -72.43025 | 24816 ft | 426 kts | 235° |
| 2026-04-23 16:27 | -13.37182 | -72.45243 | 25397 ft | 428 kts | 217° |
| 2026-04-23 16:27 | -13.39783 | -72.46722 | 25969 ft | 429 kts | 199° |
| 2026-04-23 16:27 | -13.42704 | -72.47310 | 26495 ft | 430 kts | 180° |
| 2026-04-23 16:28 | -13.45670 | -72.46925 | 27009 ft | 431 kts | 162° |
| 2026-04-23 16:28 | -13.48368 | -72.45605 | 27499 ft | 432 kts | 143° |
| 2026-04-23 16:28 | -13.50532 | -72.43470 | 27970 ft | 434 kts | 127° |
| 2026-04-23 16:28 | -13.52308 | -72.40951 | 28441 ft | 437 kts | 124° |
| 2026-04-23 16:29 | -13.54076 | -72.38392 | 28896 ft | 440 kts | 124° |
| 2026-04-23 16:29 | -13.55849 | -72.35808 | 29340 ft | 443 kts | 124° |
| 2026-04-23 16:29 | -13.57629 | -72.33209 | 29750 ft | 447 kts | 124° |
| 2026-04-23 16:29 | -13.59426 | -72.30587 | 30157 ft | 450 kts | 124° |
| 2026-04-23 16:30 | -13.61243 | -72.27948 | 30563 ft | 453 kts | 124° |
| 2026-04-23 16:30 | -13.63052 | -72.25327 | 30954 ft | 457 kts | 124° |
| 2026-04-23 16:30 | -13.64917 | -72.22620 | 31345 ft | 460 kts | 124° |
| 2026-04-23 16:30 | -13.66750 | -72.19961 | 31705 ft | 463 kts | 124° |
| 2026-04-23 16:31 | -13.68645 | -72.17213 | 32061 ft | 466 kts | 124° |
| 2026-04-23 16:31 | -13.70528 | -72.14487 | 32400 ft | 469 kts | 124° |
| 2026-04-23 16:31 | -13.72423 | -72.11744 | 32746 ft | 471 kts | 124° |
| 2026-04-23 16:31 | -13.74322 | -72.08995 | 33213 ft | 470 kts | 124° |
| 2026-04-23 16:32 | -13.76188 | -72.06290 | 33671 ft | 470 kts | 124° |
| 2026-04-23 16:32 | -13.78075 | -72.03550 | 34158 ft | 469 kts | 124° |
| 2026-04-23 16:32 | -13.79955 | -72.00816 | 34649 ft | 468 kts | 124° |
| 2026-04-23 16:32 | -13.81831 | -71.98084 | 35136 ft | 467 kts | 123° |
| 2026-04-23 16:33 | -13.83707 | -71.95352 | 35443 ft | 467 kts | 123° |
| 2026-04-23 16:33 | -13.85570 | -71.92641 | 35507 ft | 459 kts | 123° |
| 2026-04-23 16:33 | -13.89209 | -71.87354 | 35519 ft | 449 kts | 123° |
| 2026-04-23 16:34 | -13.92805 | -71.82114 | 35510 ft | 448 kts | 123° |
| 2026-04-23 16:34 | -13.96397 | -71.76883 | 35514 ft | 448 kts | 123° |
| 2026-04-23 16:35 | -13.99986 | -71.71646 | 35516 ft | 447 kts | 123° |
| 2026-04-23 16:35 | -14.03563 | -71.66415 | 35514 ft | 447 kts | 123° |
| 2026-04-23 16:36 | -14.07147 | -71.61182 | 35506 ft | 447 kts | 123° |
| 2026-04-23 16:36 | -14.10733 | -71.55950 | 35493 ft | 446 kts | 123° |
| 2026-04-23 16:37 | -14.14308 | -71.50723 | 35492 ft | 447 kts | 123° |
| 2026-04-23 16:37 | -14.17282 | -71.46370 | 35488 ft | 447 kts | 123° |
| 2026-04-23 16:38 | -14.20866 | -71.41127 | 35490 ft | 447 kts | 123° |
| 2026-04-23 16:38 | -14.24446 | -71.35883 | 35483 ft | 448 kts | 123° |
| 2026-04-23 16:39 | -14.28025 | -71.30634 | 35484 ft | 447 kts | 123° |
| 2026-04-23 16:39 | -14.31599 | -71.25382 | 35479 ft | 447 kts | 123° |
| 2026-04-23 16:40 | -14.35180 | -71.20131 | 35489 ft | 447 kts | 123° |
| 2026-04-23 16:40 | -14.38758 | -71.14881 | 35488 ft | 447 kts | 123° |
| 2026-04-23 16:41 | -14.42303 | -71.09666 | 35493 ft | 447 kts | 123° |
| 2026-04-23 16:41 | -14.45877 | -71.04418 | 35494 ft | 447 kts | 123° |
| 2026-04-23 16:42 | -14.49452 | -70.99166 | 35491 ft | 447 kts | 123° |
| 2026-04-23 16:42 | -14.53023 | -70.93913 | 35495 ft | 447 kts | 123° |
| 2026-04-23 16:43 | -14.56586 | -70.88646 | 35506 ft | 447 kts | 123° |
| 2026-04-23 16:43 | -14.60519 | -70.83678 | 35500 ft | 449 kts | 137° |
| 2026-04-23 16:44 | -14.65419 | -70.79727 | 35514 ft | 450 kts | 141° |
| 2026-04-23 16:44 | -14.70386 | -70.75809 | 35516 ft | 450 kts | 141° |
| 2026-04-23 16:45 | -14.75359 | -70.71869 | 35520 ft | 450 kts | 141° |
| 2026-04-23 16:45 | -14.80327 | -70.67938 | 35527 ft | 450 kts | 141° |
| 2026-04-23 16:46 | -14.85296 | -70.63998 | 35533 ft | 450 kts | 141° |
| 2026-04-23 16:46 | -14.90259 | -70.60062 | 35542 ft | 450 kts | 141° |
| 2026-04-23 16:47 | -14.95233 | -70.56133 | 35559 ft | 450 kts | 141° |
| 2026-04-23 16:47 | -15.00202 | -70.52191 | 35566 ft | 450 kts | 141° |
| 2026-04-23 16:48 | -15.05164 | -70.48249 | 35572 ft | 450 kts | 141° |
| 2026-04-23 16:48 | -15.10129 | -70.44303 | 35582 ft | 450 kts | 141° |
| 2026-04-23 16:49 | -15.15098 | -70.40351 | 35593 ft | 450 kts | 141° |
| 2026-04-23 16:49 | -15.20067 | -70.36393 | 35602 ft | 451 kts | 141° |
| 2026-04-23 16:50 | -15.25038 | -70.32437 | 35613 ft | 451 kts | 141° |
| 2026-04-23 16:50 | -15.30007 | -70.28489 | 35625 ft | 450 kts | 141° |
| 2026-04-23 16:51 | -15.34952 | -70.24550 | 35634 ft | 451 kts | 141° |
| 2026-04-23 16:51 | -15.39925 | -70.20587 | 35638 ft | 450 kts | 141° |
| 2026-04-23 16:52 | -15.44889 | -70.16632 | 35634 ft | 450 kts | 141° |
| 2026-04-23 16:52 | -15.49393 | -70.12169 | 35627 ft | 448 kts | 131° |
| 2026-04-23 16:53 | -15.53602 | -70.07387 | 35631 ft | 448 kts | 131° |
| 2026-04-23 16:53 | -15.57814 | -70.02615 | 35627 ft | 449 kts | 131° |
| 2026-04-23 16:54 | -15.62023 | -69.97831 | 35637 ft | 449 kts | 131° |
| 2026-04-23 16:54 | -15.66233 | -69.93036 | 35628 ft | 449 kts | 131° |
| 2026-04-23 16:55 | -15.70422 | -69.88274 | 35636 ft | 450 kts | 131° |
| 2026-04-23 16:55 | -15.74638 | -69.83477 | 35628 ft | 450 kts | 131° |
| 2026-04-23 16:56 | -15.78838 | -69.78681 | 35607 ft | 449 kts | 131° |
| 2026-04-23 16:56 | -15.83044 | -69.73877 | 35613 ft | 449 kts | 131° |
| 2026-04-23 16:57 | -15.87251 | -69.69081 | 35607 ft | 449 kts | 131° |
| 2026-04-23 16:57 | -15.91459 | -69.64295 | 35602 ft | 449 kts | 131° |
| 2026-04-23 16:58 | -15.95659 | -69.59494 | 35596 ft | 449 kts | 131° |
| 2026-04-23 16:58 | -15.99863 | -69.54685 | 35593 ft | 449 kts | 131° |
| 2026-04-23 16:59 | -16.04064 | -69.49882 | 35587 ft | 449 kts | 131° |
| 2026-04-23 16:59 | -16.08258 | -69.45071 | 35584 ft | 449 kts | 131° |
| 2026-04-23 17:00 | -16.12436 | -69.40285 | 35582 ft | 449 kts | 131° |
| 2026-04-23 17:00 | -16.16641 | -69.35475 | 35570 ft | 449 kts | 131° |
| 2026-04-23 17:01 | -16.20844 | -69.30655 | 35562 ft | 450 kts | 131° |
| 2026-04-23 17:01 | -16.25044 | -69.25834 | 35555 ft | 450 kts | 131° |
| 2026-04-23 17:02 | -16.29243 | -69.21017 | 35554 ft | 449 kts | 131° |
| 2026-04-23 17:02 | -16.33443 | -69.16198 | 35553 ft | 449 kts | 131° |
| 2026-04-23 17:03 | -16.37642 | -69.11373 | 35554 ft | 449 kts | 131° |
| 2026-04-23 17:03 | -16.41834 | -69.06544 | 35558 ft | 450 kts | 131° |
| 2026-04-23 17:04 | -16.45657 | -69.01390 | 35583 ft | 455 kts | 117° |
| 2026-04-23 17:04 | -16.47711 | -68.95136 | 35595 ft | 460 kts | 97° |
| 2026-04-23 17:05 | -16.48167 | -68.88489 | 35604 ft | 460 kts | 91° |
| 2026-04-23 17:05 | -16.48354 | -68.85159 | 35206 ft | 460 kts | 92° |
| 2026-04-23 17:05 | -16.48540 | -68.81846 | 33687 ft | 459 kts | 92° |
| 2026-04-23 17:06 | -16.48729 | -68.78503 | 31849 ft | 465 kts | 92° |
| 2026-04-23 17:06 | -16.48921 | -68.75153 | 30431 ft | 460 kts | 93° |
| 2026-04-23 17:06 | -16.49110 | -68.71857 | 29085 ft | 452 kts | 93° |
| 2026-04-23 17:06 | -16.49294 | -68.68629 | 28170 ft | 437 kts | 93° |
| 2026-04-23 17:07 | -16.49466 | -68.65558 | 27654 ft | 414 kts | 93° |
| 2026-04-23 17:07 | -16.49629 | -68.62628 | 27003 ft | 397 kts | 93° |
| 2026-04-23 17:07 | -16.49786 | -68.59777 | 26021 ft | 392 kts | 93° |
| 2026-04-23 17:07 | -16.49943 | -68.56962 | 25010 ft | 385 kts | 94° |
| 2026-04-23 17:08 | -16.50099 | -68.54196 | 24002 ft | 381 kts | 94° |
| 2026-04-23 17:08 | -16.50260 | -68.51452 | 22993 ft | 377 kts | 94° |
| 2026-04-23 17:08 | -16.50184 | -68.48748 | 21990 ft | 372 kts | 77° |
| 2026-04-23 17:08 | -16.49229 | -68.46283 | 20990 ft | 364 kts | 62° |
| 2026-04-23 17:09 | -16.48042 | -68.43970 | 19982 ft | 362 kts | 62° |
| 2026-04-23 17:09 | -16.46861 | -68.41667 | 18970 ft | 359 kts | 61° |
| 2026-04-23 17:09 | -16.45703 | -68.39380 | 17972 ft | 355 kts | 63° |
| 2026-04-23 17:09 | -16.44996 | -68.36941 | 16958 ft | 352 kts | 84° |
| 2026-04-23 17:10 | -16.45217 | -68.34429 | 15955 ft | 349 kts | 107° |
| 2026-04-23 17:10 | -16.46073 | -68.32116 | 14978 ft | 346 kts | 111° |
| 2026-04-23 17:10 | -16.46955 | -68.29824 | 14602 ft | 334 kts | 111° |
| 2026-04-23 17:10 | -16.47799 | -68.27626 | 14466 ft | 320 kts | 112° |
| 2026-04-23 17:11 | -16.48721 | -68.25565 | 14333 ft | 308 kts | 124° |
| 2026-04-23 17:11 | -16.50002 | -68.23865 | 14198 ft | 285 kts | 123° |
| 2026-04-23 17:11 | -16.50627 | -68.22014 | 14076 ft | 265 kts | 90° |
| 2026-04-23 17:11 | -16.50137 | -68.20268 | 14048 ft | 243 kts | 51° |
| 2026-04-23 17:12 | -16.48788 | -68.19338 | 14347 ft | 234 kts | 12° |
| 2026-04-23 17:12 | -16.47200 | -68.19521 | 14649 ft | 235 kts | 332° |
| 2026-04-23 17:12 | -16.46083 | -68.20725 | 14950 ft | 236 kts | 291° |
| 2026-04-23 17:12 | -16.45772 | -68.22396 | 15251 ft | 237 kts | 269° |
| 2026-04-23 17:13 | -16.45925 | -68.24103 | 15542 ft | 238 kts | 261° |
| 2026-04-23 17:13 | -16.46126 | -68.25816 | 15852 ft | 239 kts | 259° |
| 2026-04-23 17:13 | -16.46529 | -68.27511 | 15792 ft | 240 kts | 253° |
| 2026-04-23 17:13 | -16.46939 | -68.29182 | 15659 ft | 238 kts | 264° |
| 2026-04-23 17:14 | -16.46814 | -68.30888 | 15537 ft | 237 kts | 287° |
| 2026-04-23 17:14 | -16.46121 | -68.32437 | 15418 ft | 237 kts | 301° |
| 2026-04-23 17:14 | -16.45279 | -68.33916 | 15293 ft | 238 kts | 301° |
| 2026-04-23 17:14 | -16.44451 | -68.35393 | 15167 ft | 234 kts | 301° |
| 2026-04-23 17:15 | -16.43639 | -68.36859 | 15039 ft | 233 kts | 299° |
| 2026-04-23 17:15 | -16.43142 | -68.38434 | 14939 ft | 232 kts | 274° |
| 2026-04-23 17:15 | -16.43325 | -68.40097 | 14994 ft | 234 kts | 250° |
| 2026-04-23 17:15 | -16.44161 | -68.41544 | 14997 ft | 235 kts | 225° |
| 2026-04-23 17:16 | -16.45502 | -68.42498 | 14998 ft | 235 kts | 200° |
| 2026-04-23 17:16 | -16.47101 | -68.42786 | 14990 ft | 235 kts | 175° |
| 2026-04-23 17:16 | -16.48665 | -68.42352 | 14993 ft | 234 kts | 150° |
| 2026-04-23 17:16 | -16.49897 | -68.41296 | 14998 ft | 225 kts | 126° |
| 2026-04-23 17:17 | -16.50578 | -68.39875 | 14997 ft | 217 kts | 102° |
| 2026-04-23 17:17 | -16.50722 | -68.38321 | 15001 ft | 214 kts | 91° |
| 2026-04-23 17:17 | -16.50753 | -68.37304 | 15025 ft | 200 kts | 90° |
| 2026-04-23 17:17 | -16.50810 | -68.35533 | 14990 ft | 173 kts | 90° |
| 2026-04-23 17:18 | -16.50887 | -68.33131 | 14922 ft | 158 kts | 91° |
| 2026-04-23 17:18 | -16.50924 | -68.32008 | 14763 ft | 153 kts | 91° |
| 2026-04-23 17:18 | -16.50959 | -68.30916 | 14614 ft | 150 kts | 92° |
| 2026-04-23 17:19 | -16.50994 | -68.29832 | 14459 ft | 149 kts | 92° |
| 2026-04-23 17:19 | -16.51029 | -68.28750 | 14297 ft | 149 kts | 92° |
| 2026-04-23 17:19 | -16.51063 | -68.27678 | 14143 ft | 148 kts | 92° |
| 2026-04-23 17:19 | -16.51098 | -68.26606 | 13985 ft | 148 kts | 92° |
| 2026-04-23 17:20 | -16.51132 | -68.25536 | 13828 ft | 148 kts | 92° |
| 2026-04-23 17:20 | -16.51200 | -68.23399 | 13497 ft | 148 kts | 92° |
| 2026-04-23 17:21 | -16.51268 | -68.21263 | 13193 ft | 147 kts | 93° |
| 2026-04-23 17:21 | -16.51301 | -68.20246 | 13203 ft | 116 kts | 92° |
| 2026-04-23 17:21 | -16.51332 | -68.19300 | 13280 ft | 45 kts | 92° |
| 2026-04-23 17:22 | -16.51341 | -68.19000 | 13288 ft | 39 kts | 90° |
| 2026-04-23 17:22 | -16.51356 | -68.18497 | 13298 ft | 30 kts | 90° |
| 2026-04-23 17:23 | -16.51267 | -68.18187 | 13306 ft | 20 kts | 56° |
| 2026-04-23 17:23 | -16.51194 | -68.18098 | 13318 ft | 12 kts | 46° |
| 2026-04-23 17:23 | -16.51134 | -68.18031 | 13328 ft | 10 kts | 47° |
| 2026-04-23 17:24 | -16.51101 | -68.17995 | 13332 ft | 4 kts | 46° |
| 2026-04-23 17:24 | -16.51094 | -68.17987 | 13333 ft | 0 kts | 46° |
| 2026-04-23 17:24 | -16.51000 | -68.17878 | 13336 ft | 10 kts | 59° |
| 2026-04-23 17:25 | -16.50938 | -68.17817 | 13336 ft | 0 kts | 4° |
| 2026-04-23 17:25 | -16.50936 | -68.17817 | 13336 ft | 1 kts | 4° |